Terminal Aerodrome Forecast
Issued by NWS Binghamton, NY

Home | Current Version | Previous Version | Text Only | Print | Product List | Glossary On
Versions: 1 2 3 4 5 6 7 8 9 10 11 12 13 14 15 16 17 18 19 20
000
FTUS41 KBGM 181100
TAFSYR
TAF
KSYR 181128Z 1812/1912 27014G22KT P6SM -SN OVC025
      TEMPO 1812/1815 3SM -SHSN OVC015
     FM181500 29012G20KT P6SM -SN OVC018
      TEMPO 1821/1901 2SM -SHSN
     FM190100 30012KT P6SM -SN OVC022=

USA.gov is the U.S. government's official web portal to all federal, state and local government web resources and services.